createdAt,value
2023-01-03T00:00:43.817Z,81.23
2023-01-03T00:03:17.196Z,92.70
2023-01-03T00:05:46.667Z,86.43
2023-01-03T00:08:15.734Z,80.90
2023-01-03T00:10:45.155Z,76.37
2023-01-03T00:13:13.494Z,86.80
2023-01-03T00:15:42.002Z,81.00
2023-01-03T00:18:10.647Z,89.60
2023-01-03T00:20:39.638Z,82.80
2023-01-03T00:23:08.556Z,87.97
2023-01-03T00:25:37.643Z,81.87
2023-01-03T00:28:06.851Z,79.37
2023-01-03T00:30:35.124Z,74.83
2023-01-03T00:33:04.585Z,68.47
2023-01-03T00:35:33.769Z,70.90
2023-01-03T00:38:02.341Z,74.63
2023-01-03T00:40:31.620Z,75.53
2023-01-03T00:43:17.945Z,74.13
2023-01-03T00:45:46.900Z,79.63
2023-01-03T00:48:15.391Z,76.43
2023-01-03T00:50:44.690Z,79.43
2023-01-03T00:53:13.548Z,75.50
2023-01-03T00:55:42.538Z,81.13
2023-01-03T00:58:11.429Z,80.83
2023-01-03T01:00:40.299Z,80.53
2023-01-03T01:03:09.248Z,74.63
2023-01-03T01:05:37.933Z,74.73
2023-01-03T01:08:06.896Z,68.97
2023-01-03T01:10:35.134Z,65.73
2023-01-03T01:13:04.045Z,67.37
2023-01-03T01:15:33.054Z,58.63
2023-01-03T01:18:01.713Z,66.70
2023-01-03T01:20:30.634Z,61.17
2023-01-03T01:22:59.117Z,69.83
2023-01-03T01:25:28.118Z,67.03
2023-01-03T01:27:56.901Z,64.13
2023-01-03T01:30:25.599Z,65.33
2023-01-03T01:32:54.754Z,60.73
2023-01-03T02:09:53.620Z,53.67
2023-01-03T02:13:02.084Z,52.93
2023-01-03T02:15:57.320Z,53.80
2023-01-03T02:18:40.790Z,53.43
2023-01-03T02:21:43.230Z,53.63
2023-01-03T02:24:16.303Z,51.77
2023-01-03T02:26:54.963Z,53.43
2023-01-03T02:29:25.769Z,56.70
2023-01-03T02:32:27.700Z,56.07
2023-01-03T02:35:13.647Z,53.07
2023-01-03T02:38:08.641Z,53.50
2023-01-03T02:40:37.152Z,53.33
2023-01-03T02:43:08.652Z,66.60
2023-01-03T02:46:04.920Z,76.77
2023-01-03T02:48:40.721Z,65.03
2023-01-03T03:16:07.555Z,70.33
2023-01-03T03:27:11.433Z,69.03
2023-01-03T03:29:40.740Z,73.27
2023-01-03T03:32:09.234Z,72.63
2023-01-03T03:34:38.432Z,78.50
2023-01-03T03:37:15.861Z,70.30
2023-01-03T03:40:02.730Z,68.13
2023-01-03T03:43:29.916Z,63.22
2023-01-03T03:46:09.631Z,68.00
2023-01-03T03:49:30.688Z,70.93
2023-01-03T03:51:58.922Z,57.90
2023-01-03T03:54:26.853Z,68.00
2023-01-03T03:56:58.860Z,59.07
2023-01-03T03:59:27.651Z,54.87
2023-01-03T04:01:57.469Z,60.47
2023-01-03T04:04:29.155Z,56.17
2023-01-03T04:06:57.933Z,46.97
2023-01-03T04:09:26.003Z,48.60
2023-01-03T04:11:54.745Z,45.20
2023-01-03T04:14:24.037Z,48.13
2023-01-03T04:16:52.421Z,46.00
2023-01-03T04:19:21.269Z,41.10
2023-01-03T04:21:49.848Z,47.10
2023-01-03T04:24:20.391Z,42.57
2023-01-03T04:26:49.462Z,45.70
2023-01-03T04:29:18.352Z,50.53
2023-01-03T04:31:46.249Z,42.70
2023-01-03T04:34:14.887Z,43.63
2023-01-03T04:36:44.258Z,36.63
2023-01-03T04:39:12.369Z,40.77
2023-01-03T04:41:40.873Z,41.47
2023-01-03T04:44:10.306Z,39.00
2023-01-03T04:52:18.624Z,45.73
2023-01-03T04:54:46.784Z,44.13
2023-01-03T04:57:15.001Z,46.23
2023-01-03T04:59:43.718Z,54.03
2023-01-03T05:02:12.407Z,51.47
2023-01-03T05:04:44.301Z,47.10
2023-01-03T05:07:12.860Z,49.57
2023-01-03T05:09:41.804Z,50.87
2023-01-03T05:12:21.263Z,52.13
2023-01-03T05:14:49.806Z,54.63
2023-01-03T05:17:20.535Z,60.43
2023-01-03T05:20:06.817Z,50.70
2023-01-03T05:22:53.710Z,48.27
2023-01-03T05:25:40.808Z,47.30
2023-01-03T05:28:13.794Z,47.42
2023-01-03T05:30:48.743Z,47.92
2023-01-03T05:33:17.549Z,49.00
2023-01-03T05:35:48.889Z,41.67
2023-01-03T05:38:17.728Z,49.00
2023-01-03T05:40:45.715Z,47.53
2023-01-03T05:43:14.307Z,46.10
2023-01-03T05:45:43.576Z,43.67
2023-01-03T05:48:13.124Z,47.57
2023-01-03T05:50:42.288Z,46.63
2023-01-03T05:53:11.043Z,47.97
2023-01-03T05:55:39.275Z,43.27
2023-01-03T05:58:09.143Z,47.33
2023-01-03T06:00:37.502Z,48.50
2023-01-03T06:03:06.534Z,51.27
2023-01-03T06:05:38.437Z,52.57
2023-01-03T06:08:07.653Z,50.93
2023-01-03T06:10:36.895Z,50.43
2023-01-03T06:13:05.811Z,49.33
2023-01-03T06:18:15.361Z,42.90
2023-01-03T06:29:25.534Z,46.07
2023-01-03T06:31:54.544Z,44.40
2023-01-03T06:34:23.502Z,45.73
2023-01-03T06:36:51.746Z,42.63
2023-01-03T06:39:20.993Z,46.47
2023-01-03T06:41:49.115Z,41.90
2023-01-03T06:44:18.168Z,42.07
2023-01-03T06:47:04.538Z,46.23
2023-01-03T07:45:45.363Z,67.47
2023-01-03T07:48:14.210Z,56.70
2023-01-03T07:50:42.317Z,62.23
2023-01-03T07:53:16.635Z,62.80
2023-01-03T08:25:57.479Z,74.30
2023-01-03T08:50:53.476Z,70.60
2023-01-03T08:59:31.917Z,62.17
2023-01-03T09:04:41.566Z,63.03
2023-01-03T09:07:10.343Z,60.53
2023-01-03T09:09:39.167Z,62.93
2023-01-03T09:12:07.981Z,61.23
2023-01-03T09:14:36.445Z,65.33
2023-01-03T09:17:04.571Z,58.27
2023-01-03T09:19:36.912Z,60.63
2023-01-03T09:22:05.007Z,52.67
2023-01-03T09:24:32.516Z,53.67
2023-01-03T09:27:00.700Z,45.53
2023-01-03T09:29:28.717Z,51.13
2023-01-03T09:31:56.500Z,54.20
2023-01-03T09:34:25.026Z,53.90
2023-01-03T09:36:53.229Z,46.93
2023-01-03T09:39:21.698Z,43.63
2023-01-03T09:42:09.559Z,41.67
2023-01-03T09:44:37.483Z,40.80
2023-01-03T09:47:05.733Z,41.73
2023-01-03T09:50:04.531Z,45.70
2023-01-03T09:52:47.945Z,43.10
2023-01-03T09:55:56.719Z,44.20
2023-01-03T09:58:48.965Z,43.57
2023-01-03T10:01:57.812Z,42.77
2023-01-03T10:04:33.780Z,41.73
2023-01-03T10:07:25.700Z,44.00
2023-01-03T10:09:57.938Z,41.70
2023-01-03T10:12:43.522Z,44.97
2023-01-03T10:15:13.256Z,42.33
2023-01-03T10:18:02.790Z,43.30
2023-01-03T10:20:46.837Z,44.00
2023-01-03T10:23:14.348Z,42.50
2023-01-03T10:25:43.218Z,41.77
2023-01-03T10:28:26.613Z,39.40
2023-01-03T10:31:09.161Z,43.80
2023-01-03T10:33:45.652Z,43.83
2023-01-03T10:36:13.681Z,39.75
2023-01-03T10:38:47.847Z,39.10
2023-01-03T10:41:24.024Z,44.43
2023-01-03T10:44:02.559Z,43.37
2023-01-03T10:46:30.941Z,39.20
2023-01-03T10:49:38.527Z,44.47
2023-01-03T10:52:18.436Z,37.17
2023-01-03T10:54:56.787Z,36.70
2023-01-03T10:57:48.462Z,36.50
2023-01-03T11:00:21.687Z,35.67
2023-01-03T11:03:21.479Z,37.97
2023-01-03T11:05:58.561Z,34.53
2023-01-03T11:08:40.598Z,37.57
2023-01-03T11:11:09.833Z,40.03
2023-01-03T11:13:39.745Z,39.77
2023-01-03T11:16:18.717Z,38.00
2023-01-03T11:19:01.458Z,37.70
2023-01-03T11:21:41.385Z,35.23
2023-01-03T11:25:00.406Z,37.43
2023-01-03T11:30:23.374Z,34.87
2023-01-03T11:33:46.401Z,40.50
2023-01-03T11:36:31.408Z,33.63
2023-01-03T11:39:36.381Z,35.23
2023-01-03T11:42:13.407Z,34.57
2023-01-03T11:44:41.039Z,38.17
2023-01-03T11:47:40.386Z,35.43
2023-01-03T11:50:16.852Z,35.63
2023-01-03T11:55:49.527Z,36.37
2023-01-03T11:58:43.198Z,39.37
2023-01-03T12:01:38.792Z,37.07
2023-01-03T12:04:08.969Z,34.70
2023-01-03T12:07:36.930Z,37.07
2023-01-03T12:10:15.727Z,29.27
2023-01-03T12:13:10.261Z,33.17
2023-01-03T12:15:56.296Z,34.33
2023-01-03T12:18:30.173Z,33.60
2023-01-03T12:21:17.184Z,33.83
2023-01-03T12:24:01.526Z,33.03
2023-01-03T12:26:30.646Z,31.77
2023-01-03T12:29:13.887Z,36.23
2023-01-03T12:31:49.832Z,36.50
2023-01-03T12:34:22.733Z,23.10
2023-01-03T12:37:20.012Z,31.73
2023-01-03T12:40:05.819Z,32.60
2023-01-03T12:42:46.991Z,30.33
2023-01-03T12:45:34.297Z,31.70
2023-01-03T12:48:34.359Z,31.03
2023-01-03T12:51:02.037Z,31.40
2023-01-03T12:53:48.202Z,33.57
2023-01-03T12:56:39.344Z,31.33
2023-01-03T12:59:30.656Z,31.63
2023-01-03T13:02:00.885Z,31.00
2023-01-03T13:04:36.267Z,30.60
2023-01-03T13:07:05.224Z,30.57
2023-01-03T13:09:37.070Z,32.83
2023-01-03T13:12:08.873Z,29.97
2023-01-03T13:14:55.425Z,32.17
2023-01-03T13:17:29.276Z,30.02
2023-01-03T13:20:27.358Z,34.50
2023-01-03T13:22:54.887Z,29.80
2023-01-03T13:25:32.794Z,32.93
2023-01-03T13:28:02.304Z,32.37
2023-01-03T13:30:32.230Z,32.53
2023-01-03T13:33:07.218Z,31.03
2023-01-03T13:35:36.030Z,35.67
2023-01-03T13:38:37.717Z,35.83
2023-01-03T13:41:18.191Z,35.40
2023-01-03T13:43:50.412Z,34.37
2023-01-03T13:46:27.748Z,35.30
2023-01-03T13:49:09.115Z,32.60
2023-01-03T13:51:39.074Z,30.97
2023-01-03T13:54:23.480Z,37.20
2023-01-03T13:56:59.037Z,33.23
2023-01-03T13:59:34.111Z,35.47
2023-01-03T14:02:08.015Z,30.93
2023-01-03T14:05:03.168Z,31.63
2023-01-03T14:07:52.147Z,33.33
2023-01-03T14:10:38.506Z,34.67
2023-01-03T14:13:34.686Z,32.13
2023-01-03T14:16:13.914Z,31.30
2023-01-03T14:18:42.180Z,35.60
2023-01-03T14:21:15.649Z,30.50
2023-01-03T14:23:59.625Z,27.85
2023-01-03T14:26:27.622Z,31.90
2023-01-03T14:28:55.373Z,28.67
2023-01-03T14:31:51.416Z,30.43
2023-01-03T14:34:26.097Z,27.80
2023-01-03T14:36:54.142Z,33.57
2023-01-03T14:42:00.241Z,32.13
2023-01-03T14:44:29.291Z,34.57
2023-01-03T14:46:57.925Z,32.90
2023-01-03T14:49:24.451Z,35.13
2023-01-03T14:51:51.936Z,34.47
2023-01-03T14:54:20.455Z,32.33
2023-01-03T14:56:51.410Z,33.90
2023-01-03T14:59:19.910Z,32.57
2023-01-03T15:01:46.757Z,28.20
2023-01-03T15:04:15.421Z,33.20
2023-01-03T15:07:04.816Z,31.90
2023-01-03T15:09:37.028Z,31.60
2023-01-03T15:12:05.688Z,34.20
2023-01-03T15:14:34.623Z,33.30
2023-01-03T15:17:33.251Z,33.93
2023-01-03T15:20:01.489Z,37.53
2023-01-03T15:22:34.979Z,30.47
2023-01-03T15:25:06.589Z,32.73
2023-01-03T15:27:39.704Z,31.93
2023-01-03T15:30:26.362Z,30.77
2023-01-03T15:33:20.370Z,34.20
2023-01-03T15:35:48.012Z,32.80
2023-01-03T15:38:20.446Z,28.63
2023-01-03T15:40:49.245Z,27.10
2023-01-03T15:43:20.053Z,32.37
2023-01-03T15:45:57.288Z,33.70
2023-01-03T15:48:26.158Z,32.43
2023-01-03T15:50:55.911Z,38.23
2023-01-03T15:53:40.955Z,34.67
2023-01-03T15:56:18.246Z,36.43
2023-01-03T15:58:48.154Z,34.33
2023-01-03T16:01:16.574Z,38.57
2023-01-03T16:03:45.486Z,32.90
2023-01-03T16:06:14.100Z,32.97
2023-01-03T16:08:42.660Z,35.83
2023-01-03T16:11:19.411Z,34.17
2023-01-03T16:13:50.277Z,30.33
2023-01-03T16:16:26.625Z,30.67
2023-01-03T16:18:54.179Z,33.90
2023-01-03T16:21:21.973Z,29.63
2023-01-03T16:23:52.433Z,34.37
2023-01-03T16:26:20.333Z,35.27
2023-01-03T16:28:49.108Z,34.63
2023-01-03T16:31:18.743Z,34.77
2023-01-03T16:33:50.400Z,34.13
2023-01-03T16:36:35.426Z,34.63
2023-01-03T16:39:04.015Z,33.87
2023-01-03T16:41:32.369Z,39.03
2023-01-03T16:44:00.881Z,34.30
2023-01-03T16:46:29.389Z,34.30
2023-01-03T16:48:59.003Z,35.90
2023-01-03T16:51:31.586Z,35.43
2023-01-03T16:53:59.440Z,36.93
2023-01-03T16:56:27.862Z,32.87
2023-01-03T16:58:55.626Z,34.93
2023-01-03T17:01:24.675Z,35.17
2023-01-03T17:03:53.459Z,37.70
2023-01-03T17:06:25.483Z,34.57
2023-01-03T17:08:53.726Z,39.57
2023-01-03T17:11:25.217Z,37.40
2023-01-03T17:14:00.410Z,45.10
2023-01-03T17:16:29.241Z,40.00
2023-01-03T17:18:57.996Z,41.30
2023-01-03T17:21:25.553Z,41.77
2023-01-03T17:24:06.588Z,42.30
2023-01-03T17:26:39.053Z,44.07
2023-01-03T17:29:06.997Z,40.83
2023-01-03T17:31:34.749Z,41.37
2023-01-03T17:34:03.405Z,41.00
2023-01-03T17:36:32.471Z,47.73
2023-01-03T17:39:03.013Z,42.70
2023-01-03T17:41:30.815Z,45.90
2023-01-03T17:43:58.784Z,42.23
2023-01-03T17:46:45.234Z,45.17
2023-01-03T17:49:25.522Z,41.20
2023-01-03T17:51:57.344Z,43.20
2023-01-03T17:54:30.572Z,54.40
2023-01-03T17:56:58.608Z,60.67
2023-01-03T17:59:26.965Z,59.70
2023-01-03T18:01:54.815Z,67.23
2023-01-03T18:04:23.440Z,49.03
2023-01-03T18:06:56.325Z,46.80
2023-01-03T18:09:23.448Z,43.03
2023-01-03T18:11:51.369Z,44.90
2023-01-03T18:14:19.108Z,42.33
2023-01-03T18:16:53.148Z,44.63
2023-01-03T18:19:23.012Z,45.30
2023-01-03T18:21:50.505Z,44.50
2023-01-03T18:24:22.045Z,43.83
2023-01-03T18:26:53.180Z,48.07
2023-01-03T18:29:21.256Z,47.97
2023-01-03T18:31:49.403Z,47.47
2023-01-03T18:34:17.740Z,47.73
2023-01-03T18:36:49.742Z,50.10
2023-01-03T18:39:19.758Z,46.17
2023-01-03T18:41:47.794Z,45.07
2023-01-03T18:44:23.176Z,50.43
2023-01-03T18:47:11.437Z,52.43
2023-01-03T18:49:39.587Z,50.10
2023-01-03T18:52:07.108Z,47.40
2023-01-03T18:54:36.403Z,52.23
2023-01-03T18:57:03.443Z,48.27
2023-01-03T18:59:32.088Z,51.37
2023-01-03T19:01:59.887Z,54.17
2023-01-03T19:04:30.810Z,55.50
2023-01-03T19:06:59.135Z,49.50
2023-01-03T19:09:26.413Z,53.20
2023-01-03T19:11:53.819Z,49.13
2023-01-03T19:14:21.301Z,49.47
2023-01-03T19:16:48.962Z,47.43
2023-01-03T19:19:16.470Z,48.67
2023-01-03T19:21:45.932Z,48.83
2023-01-03T19:24:39.445Z,52.00
2023-01-03T19:27:27.039Z,45.27
2023-01-03T19:30:25.047Z,47.45
2023-01-03T19:33:13.341Z,45.03
2023-01-03T19:35:41.041Z,46.53
2023-01-03T19:38:09.920Z,45.73
2023-01-03T19:40:38.348Z,46.47
2023-01-03T19:43:05.763Z,48.07
2023-01-03T19:45:37.148Z,44.47
2023-01-03T19:48:10.038Z,44.70
2023-01-03T19:50:37.967Z,53.67
2023-01-03T19:53:06.369Z,49.03
2023-01-03T19:55:34.788Z,51.93
2023-01-03T19:58:06.354Z,48.90
2023-01-03T20:00:33.614Z,46.00
2023-01-03T20:03:05.969Z,49.73
2023-01-03T20:05:38.152Z,49.33
2023-01-03T20:08:11.777Z,49.67
2023-01-03T20:10:41.037Z,50.87
2023-01-03T20:13:12.002Z,54.77
2023-01-03T20:15:43.085Z,58.87
2023-01-03T20:18:31.549Z,51.10
2023-01-03T20:21:05.695Z,52.50
2023-01-03T20:23:35.242Z,55.13
2023-01-03T20:26:04.561Z,47.67
2023-01-03T20:28:35.598Z,54.07
2023-01-03T20:31:03.671Z,57.93
2023-01-03T20:33:31.720Z,51.47
2023-01-03T20:36:18.084Z,51.37
2023-01-03T20:38:50.733Z,53.40
2023-01-03T20:41:18.901Z,45.27
2023-01-03T20:43:45.716Z,52.90
2023-01-03T20:46:50.994Z,48.27
2023-01-03T20:49:20.419Z,48.70
2023-01-03T20:51:48.559Z,53.20
2023-01-03T20:54:16.629Z,53.10
2023-01-03T20:56:44.292Z,49.97
2023-01-03T20:59:19.067Z,51.90
2023-01-03T21:17:58.237Z,48.87
2023-01-03T21:20:30.435Z,54.07
2023-01-03T21:22:58.569Z,52.63
2023-01-03T21:33:32.577Z,50.20
2023-01-03T21:36:00.730Z,46.33
2023-01-03T21:38:28.676Z,44.57
2023-01-03T21:40:57.393Z,46.33
2023-01-03T21:43:25.888Z,49.60
2023-01-03T21:45:56.480Z,45.10
2023-01-03T21:48:24.601Z,43.10
2023-01-03T21:50:52.243Z,44.10
2023-01-03T21:53:23.274Z,40.30
2023-01-03T21:55:51.830Z,38.80
2023-01-03T21:58:19.390Z,41.30
2023-01-03T22:00:48.469Z,37.43
2023-01-03T22:03:35.271Z,41.57
2023-01-03T22:06:12.134Z,39.15
2023-01-03T22:08:41.989Z,42.72
2023-01-03T22:11:10.854Z,42.27
2023-01-03T22:13:38.611Z,45.93
2023-01-03T22:16:08.807Z,50.03
2023-01-03T22:18:36.565Z,48.37
2023-01-03T22:21:07.067Z,47.43
2023-01-03T22:23:35.368Z,45.23
2023-01-03T22:26:32.337Z,43.23
2023-01-03T22:29:02.546Z,42.07
2023-01-03T22:31:30.608Z,46.93
2023-01-03T22:33:59.453Z,47.57
2023-01-03T22:36:27.934Z,49.20
2023-01-03T22:38:56.042Z,42.57
2023-01-03T22:41:23.954Z,46.10
2023-01-03T22:43:53.124Z,46.90
2023-01-03T22:46:21.315Z,47.00
2023-01-03T22:48:49.279Z,42.80
2023-01-03T22:51:16.867Z,46.00
2023-01-03T22:53:45.405Z,50.03
2023-01-03T22:56:15.278Z,51.43
2023-01-03T22:58:43.403Z,50.17
2023-01-03T23:01:13.001Z,52.30
2023-01-03T23:03:41.058Z,51.37
2023-01-03T23:06:09.647Z,49.63
2023-01-03T23:08:36.719Z,47.37
2023-01-03T23:11:33.944Z,49.43
2023-01-03T23:14:02.720Z,51.55
2023-01-03T23:16:31.225Z,51.23
2023-01-03T23:18:59.323Z,56.47
2023-01-03T23:21:27.219Z,50.13
2023-01-03T23:23:54.282Z,48.83
2023-01-03T23:26:22.178Z,50.87
2023-01-03T23:28:50.191Z,47.00
2023-01-03T23:31:18.201Z,46.83
2023-01-03T23:33:45.883Z,46.13
2023-01-03T23:36:13.540Z,57.43
2023-01-03T23:38:41.497Z,48.33
2023-01-03T23:41:12.772Z,62.10
2023-01-03T23:43:40.661Z,52.53
2023-01-03T23:46:08.525Z,49.77
2023-01-03T23:48:36.381Z,62.87
2023-01-03T23:51:07.485Z,44.40
2023-01-03T23:53:41.569Z,49.93
2023-01-03T23:56:37.907Z,54.03
2023-01-03T23:59:05.622Z,58.33
